Time;durP1;ratioP1;P1;durP2;ratioP2;P2;SDS_P1;SDS_P2;PMS_P1;PMS_P2;Temp;Humidity;BMP_temperature;BMP_pressure;BME280_temperature;BME280_humidity;BME280_pressure;Samples;Min_cycle;Max_cycle;Signal;HPM_P1;HPM_P2
2023/01/29 00:01:42;;;;;;;14.23;5.63;;;;;;;-0.27;100.00;98856.22;5160938;27;20054;-69
2023/01/29 00:04:08;;;;;;;7.43;3.75;;;;;;;-0.21;100.00;98818.38;5161474;27;20414;-66
2023/01/29 00:06:35;;;;;;;5.90;3.60;;;;;;;-0.39;100.00;98775.13;5160781;27;20217;-69
2023/01/29 00:09:01;;;;;;;8.05;3.88;;;;;;;-0.29;100.00;98792.97;5161402;27;20046;-66
2023/01/29 00:11:27;;;;;;;4.95;2.95;;;;;;;-0.22;100.00;98769.09;5160616;27;20050;-68
2023/01/29 00:13:53;;;;;;;5.97;3.60;;;;;;;-0.23;100.00;98719.03;5160605;27;20046;-65
2023/01/29 00:16:20;;;;;;;10.65;3.78;;;;;;;-0.17;100.00;98692.75;5160623;27;20058;-68
2023/01/29 00:18:46;;;;;;;5.57;3.15;;;;;;;-0.18;100.00;98667.72;5160785;27;20408;-66
2023/01/29 00:21:15;;;;;;;5.03;2.83;;;;;;;-0.15;100.00;98636.66;5160371;27;20067;-70
2023/01/29 00:23:42;;;;;;;7.80;3.28;;;;;;;-0.17;100.00;98618.09;5160440;27;20050;-69
2023/01/29 00:26:08;;;;;;;8.95;3.33;;;;;;;-0.34;100.00;98610.69;5160774;27;20103;-68
2023/01/29 00:28:35;;;;;;;5.55;2.92;;;;;;;-0.29;100.00;98632.16;5160360;27;20438;-66
2023/01/29 00:31:07;;;;;;;4.18;2.40;;;;;;;-0.38;100.00;98622.41;5160772;27;20061;-71
2023/01/29 00:33:33;;;;;;;3.67;2.42;;;;;;;-0.27;100.00;98639.91;5160302;27;20054;-67
2023/01/29 00:36:02;;;;;;;3.95;2.47;;;;;;;-0.51;100.00;98629.44;5160759;27;20047;-65
2023/01/29 00:38:29;;;;;;;4.00;2.35;;;;;;;-0.52;100.00;98639.41;5160188;27;20376;-66
2023/01/29 00:46:24;;;;;;;4.18;1.80;;;;;;;-0.51;100.00;98546.75;5160527;27;20107;-67
2023/01/29 00:48:50;;;;;;;3.30;2.20;;;;;;;-0.70;100.00;98548.81;5160453;27;20323;-65
2023/01/29 00:51:16;;;;;;;5.35;2.30;;;;;;;-0.36;100.00;98536.72;5160064;27;20054;-67
2023/01/29 00:53:43;;;;;;;2.78;1.80;;;;;;;-0.28;100.00;98501.75;5160370;27;20308;-65
2023/01/29 00:56:09;;;;;;;4.05;2.00;;;;;;;-0.36;100.00;98496.31;5159971;27;20077;-68
2023/01/29 00:58:35;;;;;;;3.65;1.88;;;;;;;-0.28;100.00;98501.75;5160386;27;20051;-67
2023/01/29 01:01:02;;;;;;;1.77;1.45;;;;;;;-0.33;100.00;98499.19;5159827;27;20053;-67
2023/01/29 01:03:28;;;;;;;3.28;2.00;;;;;;;-0.46;100.00;98493.91;5159778;27;20369;-66
2023/01/29 01:06:04;;;;;;;3.42;1.63;;;;;;;-0.26;100.00;98488.75;5160104;27;20082;-64
2023/01/29 01:11:15;;;;;;;3.45;1.80;;;;;;;-0.32;100.00;98483.81;5160405;27;20135;-66
2023/01/29 01:13:42;;;;;;;4.25;1.83;;;;;;;-0.35;100.00;98487.94;5159960;27;20047;-64
2023/01/29 01:16:09;;;;;;;7.93;2.38;;;;;;;-0.30;100.00;98489.69;5159944;27;20050;-68
2023/01/29 01:18:36;;;;;;;2.75;2.20;;;;;;;-0.51;100.00;98497.50;5159953;27;20058;-64
2023/01/29 01:21:03;;;;;;;2.38;1.73;;;;;;;-0.36;100.00;98480.97;5160101;27;20205;-68
2023/01/29 01:23:30;;;;;;;3.08;2.10;;;;;;;-0.37;100.00;98489.31;5159488;27;20046;-67
2023/01/29 01:25:56;;;;;;;2.45;2.00;;;;;;;-0.35;100.00;98487.13;5159469;27;20055;-67
2023/01/29 01:28:23;;;;;;;2.88;2.20;;;;;;;-0.38;100.00;98487.75;5159702;27;20104;-64
2023/01/29 01:30:49;;;;;;;3.85;2.25;;;;;;;-0.40;100.00;98485.38;5159112;27;20072;-67
2023/01/29 01:33:16;;;;;;;4.43;2.10;;;;;;;-0.25;100.00;98484.97;5158969;27;20415;-65
2023/01/29 01:35:42;;;;;;;4.97;2.53;;;;;;;-0.26;100.00;98486.06;5159313;27;20400;-64
2023/01/29 01:38:09;;;;;;;2.97;2.30;;;;;;;-0.27;100.00;98484.50;5159616;27;20046;-66
2023/01/29 01:40:35;;;;;;;2.38;2.08;;;;;;;-0.28;100.00;98480.19;5159313;27;20051;-67
2023/01/29 01:43:02;;;;;;;4.20;2.20;;;;;;;-0.29;100.00;98488.59;5159573;27;20305;-67
2023/01/29 01:45:30;;;;;;;3.90;2.22;;;;;;;-0.43;100.00;98490.56;5159426;27;20050;-64
2023/01/29 01:48:00;;;;;;;2.60;2.00;;;;;;;-0.41;100.00;98496.44;5159626;27;20055;-69
2023/01/29 01:50:30;;;;;;;4.22;2.50;;;;;;;-0.37;100.00;98494.72;5158980;27;20084;-66
2023/01/29 01:53:00;;;;;;;2.08;1.70;;;;;;;-0.37;100.00;98490.13;5159014;27;20115;-68
2023/01/29 01:55:28;;;;;;;5.03;2.35;;;;;;;-0.32;100.00;98486.50;5159301;27;20054;-66
2023/01/29 01:58:00;;;;;;;4.45;2.55;;;;;;;-0.64;100.00;98484.91;5158974;27;20042;-68
2023/01/29 02:00:26;;;;;;;3.70;2.50;;;;;;;-0.52;100.00;98483.25;5159194;27;20051;-66
2023/01/29 02:11:17;;;;;;;3.42;2.30;;;;;;;-0.36;100.00;98477.47;5158848;27;20049;-65
2023/01/29 02:13:43;;;;;;;3.08;2.20;;;;;;;-0.41;100.00;98458.75;5158829;27;20046;-65
2023/01/29 02:16:10;;;;;;;3.90;2.47;;;;;;;-0.37;100.00;98457.00;5158911;27;20050;-65
2023/01/29 02:18:38;;;;;;;3.40;2.25;;;;;;;-0.33;100.00;98464.19;5158896;27;20053;-68
2023/01/29 02:21:24;;;;;;;2.78;2.30;;;;;;;-0.41;100.00;98458.75;5158691;27;20047;-68
2023/01/29 02:24:20;;;;;;;3.65;2.15;;;;;;;-0.59;100.00;98474.03;5158981;27;20171;-64
2023/01/29 02:26:58;;;;;;;2.92;2.40;;;;;;;-0.53;100.00;98475.50;5157698;27;20434;-65
2023/01/29 02:29:32;;;;;;;3.22;2.40;;;;;;;-0.55;100.00;98475.78;5158455;27;20111;-68
2023/01/29 02:32:13;;;;;;;5.88;2.38;;;;;;;-0.60;100.00;98483.19;5158569;27;20061;-68
2023/01/29 02:37:37;;;;;;;3.47;2.63;;;;;;;-0.98;100.00;98513.97;5159214;27;20185;-65
2023/01/29 02:40:12;;;;;;;15.45;4.88;;;;;;;-1.03;100.00;98534.81;5158490;27;20436;-67
2023/01/29 02:42:46;;;;;;;4.38;3.20;;;;;;;-0.97;100.00;98542.47;5158487;27;20051;-67
2023/01/29 02:45:18;;;;;;;7.82;3.95;;;;;;;-0.75;100.00;98565.13;5158613;27;20114;-67
2023/01/29 02:47:49;;;;;;;4.95;3.15;;;;;;;-0.80;100.00;98570.59;5158152;27;20042;-67
2023/01/29 02:50:20;;;;;;;8.45;3.83;;;;;;;-0.80;100.00;98586.75;5158427;27;20054;-69
2023/01/29 02:52:57;;;;;;;6.18;3.42;;;;;;;-0.70;100.00;98589.19;5158253;27;20056;-68
2023/01/29 02:55:29;;;;;;;5.82;3.10;;;;;;;-0.71;100.00;98591.09;5158546;27;20050;-63
2023/01/29 02:58:00;;;;;;;8.15;3.83;;;;;;;-0.92;100.00;98597.25;5158002;27;20408;-66
2023/01/29 03:00:32;;;;;;;8.95;4.75;;;;;;;-0.67;100.00;98615.50;5158184;27;20057;-67
2023/01/29 03:03:04;;;;;;;5.97;3.58;;;;;;;-0.79;100.00;98596.44;5158226;27;20046;-66
2023/01/29 03:05:36;;;;;;;6.53;3.90;;;;;;;-1.10;100.00;98589.03;5158056;27;20305;-62
2023/01/29 03:08:09;;;;;;;7.32;3.67;;;;;;;-0.92;100.00;98619.59;5158304;27;20047;-68
2023/01/29 03:10:38;;;;;;;4.72;3.28;;;;;;;-1.22;100.00;98583.38;5158017;27;20405;-65
2023/01/29 03:13:12;;;;;;;3.80;2.80;;;;;;;-1.00;100.00;98601.44;5158180;27;20328;-66
2023/01/29 03:15:45;;;;;;;4.35;3.22;;;;;;;-1.24;100.00;98558.66;5157798;27;20047;-66
2023/01/29 03:18:15;;;;;;;4.40;2.88;;;;;;;-1.55;100.00;98543.16;5157965;27;20042;-71
2023/01/29 03:20:48;;;;;;;5.55;3.00;;;;;;;-1.63;100.00;98535.81;5157975;27;20301;-68
2023/01/29 03:23:26;;;;;;;7.28;2.60;;;;;;;-1.30;100.00;98485.38;5157918;27;20066;-67
2023/01/29 03:34:23;;;;;;;4.47;2.80;;;;;;;-1.16;100.00;98431.53;5157936;27;20058;-68
2023/01/29 03:36:54;;;;;;;4.50;2.80;;;;;;;-1.37;100.00;98439.28;5157831;27;20142;-65
2023/01/29 03:39:22;;;;;;;5.43;3.13;;;;;;;-1.40;100.00;98449.84;5157733;27;20111;-64
2023/01/29 03:41:54;;;;;;;4.13;2.70;;;;;;;-1.21;100.00;98437.81;5157620;27;20046;-66
2023/01/29 03:44:35;;;;;;;5.45;2.92;;;;;;;-1.25;100.00;98436.84;5157712;27;20396;-65
2023/01/29 03:47:13;;;;;;;3.65;2.70;;;;;;;-1.35;100.00;98423.63;5157510;27;20051;-69
2023/01/29 03:49:54;;;;;;;3.78;2.38;;;;;;;-1.28;100.00;98428.59;5157880;27;20077;-67
2023/01/29 03:52:25;;;;;;;2.03;1.90;;;;;;;-1.33;100.00;98420.63;5157674;27;20330;-67
2023/01/29 03:54:59;;;;;;;2.15;2.05;;;;;;;-1.25;100.00;98434.16;5158341;27;20426;-66
2023/01/29 03:57:34;;;;;;;3.33;2.53;;;;;;;-1.28;100.00;98437.44;5161232;27;20053;-63
2023/01/29 04:00:08;;;;;;;3.83;2.60;;;;;;;-1.52;100.00;98439.63;5160800;27;20054;-64
2023/01/29 04:02:41;;;;;;;3.13;2.60;;;;;;;-1.34;100.00;98413.69;5161124;27;20137;-64
2023/01/29 04:05:15;;;;;;;4.00;2.53;;;;;;;-1.24;100.00;98413.44;5160786;27;20050;-64
2023/01/29 04:07:43;;;;;;;5.20;2.90;;;;;;;-1.33;100.00;98423.31;5161243;27;20054;-67
2023/01/29 04:10:14;;;;;;;4.00;2.25;;;;;;;-1.37;100.00;98412.38;5161217;27;20059;-67
2023/01/29 04:12:44;;;;;;;2.15;1.88;;;;;;;-1.52;100.00;98413.53;5160868;27;20058;-67
2023/01/29 04:15:14;;;;;;;2.72;1.70;;;;;;;-1.49;100.00;98439.03;5160732;27;20051;-69
2023/01/29 04:17:44;;;;;;;3.38;2.15;;;;;;;-1.71;100.00;98442.44;5160577;27;20051;-66
2023/01/29 04:20:11;;;;;;;4.38;1.27;;;;;;;-1.66;100.00;98420.84;5160715;27;20407;-69
2023/01/29 04:22:39;;;;;;;3.58;2.17;;;;;;;-1.91;100.00;98432.94;5160658;27;20047;-64
2023/01/29 04:25:14;;;;;;;1.83;1.50;;;;;;;-1.76;100.00;98423.75;5160802;27;20057;-66
2023/01/29 04:27:49;;;;;;;3.58;2.22;;;;;;;-1.70;100.00;98433.28;5160638;27;20043;-69
2023/01/29 04:30:25;;;;;;;1.70;1.60;;;;;;;-1.71;100.00;98461.25;5160926;27;20061;-62
2023/01/29 04:33:02;;;;;;;2.83;1.67;;;;;;;-1.51;100.00;98454.66;5160340;27;20383;-68
2023/01/29 04:35:31;;;;;;;2.22;1.77;;;;;;;-1.59;100.00;98477.69;5160475;27;20043;-68
2023/01/29 04:38:07;;;;;;;2.58;1.55;;;;;;;-1.52;100.00;98480.75;5160699;27;20077;-64
2023/01/29 04:40:43;;;;;;;4.28;2.10;;;;;;;-1.67;100.00;98460.38;5160107;27;20046;-70
2023/01/29 04:43:17;;;;;;;4.82;1.70;;;;;;;-1.71;100.00;98420.94;5160611;27;20046;-66
2023/01/29 04:45:55;;;;;;;5.25;2.38;;;;;;;-1.58;100.00;98404.00;5160158;27;20047;-67
2023/01/29 04:48:27;;;;;;;3.03;2.00;;;;;;;-1.37;100.00;98417.75;5160575;27;20098;-67
2023/01/29 04:51:02;;;;;;;1.90;1.80;;;;;;;-1.40;100.00;98450.63;5160416;27;20055;-70
2023/01/29 04:53:38;;;;;;;2.35;1.75;;;;;;;-1.32;100.00;98465.25;5160224;27;20055;-64
2023/01/29 04:56:13;;;;;;;2.30;1.60;;;;;;;-1.38;100.00;98487.97;5160418;27;20057;-64
2023/01/29 04:58:43;;;;;;;4.13;2.05;;;;;;;-1.84;100.00;98464.75;5160191;27;20196;-66
2023/01/29 05:01:13;;;;;;;2.17;1.75;;;;;;;-1.46;100.00;98422.28;5160243;27;20061;-69
2023/01/29 05:03:43;;;;;;;1.80;1.70;;;;;;;-1.37;100.00;98436.59;5159883;27;20077;-66
2023/01/29 05:06:11;;;;;;;2.28;1.85;;;;;;;-1.34;100.00;98456.69;5158654;27;20043;-66
2023/01/29 05:08:38;;;;;;;3.05;2.30;;;;;;;-1.30;100.00;98466.56;5159733;27;20054;-70
2023/01/29 05:11:05;;;;;;;2.80;2.13;;;;;;;-1.69;100.00;98434.91;5160023;27;20043;-69
2023/01/29 05:13:33;;;;;;;2.72;2.00;;;;;;;-1.42;100.00;98423.28;5159722;27;20110;-69
2023/01/29 05:16:04;;;;;;;4.55;1.80;;;;;;;-1.74;100.00;98416.19;5159895;27;20050;-70
2023/01/29 05:18:31;;;;;;;2.97;2.10;;;;;;;-1.62;100.00;98418.34;5159837;27;20069;-67
2023/01/29 05:21:03;;;;;;;2.40;1.88;;;;;;;-1.59;100.00;98425.81;5159615;27;20055;-70
2023/01/29 05:23:29;;;;;;;1.77;1.65;;;;;;;-1.56;100.00;98419.84;5159832;27;20404;-66
2023/01/29 05:25:56;;;;;;;1.83;1.67;;;;;;;-1.39;100.00;98422.66;5159574;27;20046;-70
2023/01/29 05:28:22;;;;;;;4.65;2.00;;;;;;;-1.44;100.00;98447.75;5159935;27;20102;-70
2023/01/29 05:30:50;;;;;;;2.97;2.10;;;;;;;-1.74;100.00;98435.78;5159363;27;20086;-66
2023/01/29 05:33:19;;;;;;;2.60;1.90;;;;;;;-1.50;100.00;98394.41;5159772;27;20336;-68
2023/01/29 05:35:46;;;;;;;1.67;1.58;;;;;;;-1.51;100.00;98398.19;5159648;27;20324;-69
2023/01/29 05:38:13;;;;;;;3.58;2.15;;;;;;;-1.48;100.00;98409.13;5159214;27;20154;-65
2023/01/29 05:40:39;;;;;;;6.18;2.05;;;;;;;-1.49;100.00;98415.63;5159248;27;20404;-68
2023/01/29 05:43:11;;;;;;;1.95;1.77;;;;;;;-1.60;100.00;98405.41;5159396;27;20042;-66
2023/01/29 05:45:37;;;;;;;2.30;1.95;;;;;;;-1.72;100.00;98401.34;5159311;27;20050;-64
2023/01/29 05:48:04;;;;;;;2.15;1.73;;;;;;;-1.36;100.00;98405.13;5159325;27;20061;-67
2023/01/29 05:50:30;;;;;;;3.50;2.05;;;;;;;-2.04;100.00;98391.56;5159382;27;20058;-68
2023/01/29 05:52:57;;;;;;;5.55;1.75;;;;;;;-1.53;100.00;98382.41;5159109;27;20119;-65
2023/01/29 05:55:24;;;;;;;2.67;1.73;;;;;;;-1.54;100.00;98399.59;5159412;27;20080;-68
2023/01/29 05:57:50;;;;;;;2.58;1.80;;;;;;;-1.81;100.00;98397.78;5158964;27;20047;-66
2023/01/29 06:00:17;;;;;;;2.30;1.92;;;;;;;-1.42;100.00;98401.75;5159275;27;20416;-67
2023/01/29 06:02:43;;;;;;;4.75;1.88;;;;;;;-1.62;100.00;98396.84;5159082;27;20061;-68
2023/01/29 06:05:09;;;;;;;2.67;1.90;;;;;;;-1.71;100.00;98402.94;5158740;27;20114;-64
2023/01/29 06:07:35;;;;;;;4.47;2.17;;;;;;;-1.70;100.00;98401.84;5159195;27;20046;-68
2023/01/29 06:10:02;;;;;;;4.93;2.13;;;;;;;-1.57;100.00;98386.75;5158732;27;20054;-65
2023/01/29 06:12:29;;;;;;;3.03;1.98;;;;;;;-1.34;100.00;98394.84;5158861;27;20054;-61
2023/01/29 06:14:55;;;;;;;4.53;2.47;;;;;;;-1.32;100.00;98401.53;5158876;27;20110;-69
2023/01/29 06:17:21;;;;;;;2.92;2.10;;;;;;;-1.47;100.00;98389.22;5158532;27;20065;-67
2023/01/29 06:19:47;;;;;;;5.38;2.00;;;;;;;-1.50;100.00;98394.41;5158555;27;20426;-68
2023/01/29 06:22:14;;;;;;;4.30;2.00;;;;;;;-1.33;100.00;98393.75;5158988;27;20058;-70
2023/01/29 06:24:40;;;;;;;3.47;2.40;;;;;;;-1.47;100.00;98380.34;5158755;27;20050;-63
2023/01/29 06:27:06;;;;;;;3.40;2.13;;;;;;;-1.39;100.00;98368.88;5159003;27;20062;-70
2023/01/29 06:29:33;;;;;;;2.78;2.10;;;;;;;-1.58;100.00;98361.00;5158447;27;20181;-65
2023/01/29 06:31:59;;;;;;;2.65;2.10;;;;;;;-1.56;100.00;98369.56;5158621;27;20046;-68
2023/01/29 06:34:25;;;;;;;2.80;2.08;;;;;;;-1.66;100.00;98367.09;5158655;27;20415;-67
2023/01/29 06:36:51;;;;;;;3.85;2.53;;;;;;;-1.71;100.00;98370.69;5158526;27;20110;-68
2023/01/29 06:39:18;;;;;;;2.35;1.85;;;;;;;-1.35;100.00;98371.75;5158548;27;20051;-67
2023/01/29 06:41:45;;;;;;;3.50;1.92;;;;;;;-1.74;100.00;98359.75;5158458;27;20043;-68
2023/01/29 06:44:11;;;;;;;3.50;2.15;;;;;;;-1.57;100.00;98351.81;5158502;27;20043;-69
2023/01/29 06:46:38;;;;;;;4.50;2.35;;;;;;;-1.55;100.00;98355.00;5158273;27;20415;-66
2023/01/29 06:49:04;;;;;;;2.33;1.80;;;;;;;-1.21;100.00;98351.75;5158551;27;20415;-70
2023/01/29 06:51:30;;;;;;;6.45;3.03;;;;;;;-1.43;100.00;98341.81;5158489;27;20059;-65
2023/01/29 06:53:57;;;;;;;2.00;1.55;;;;;;;-1.28;100.00;98346.03;5158494;27;20476;-68
2023/01/29 06:56:24;;;;;;;2.38;2.00;;;;;;;-1.13;100.00;98344.03;5158098;27;20047;-69
2023/01/29 06:58:50;;;;;;;3.92;2.22;;;;;;;-0.94;100.00;98347.31;5158579;27;20050;-70
2023/01/29 07:01:16;;;;;;;2.67;2.17;;;;;;;-1.30;100.00;98344.72;5158055;27;20072;-63
2023/01/29 07:03:43;;;;;;;2.80;2.10;;;;;;;-0.87;100.00;98334.22;5158194;27;20054;-65
2023/01/29 07:06:10;;;;;;;3.00;2.10;;;;;;;-1.10;100.00;98335.34;5158339;27;20046;-68
2023/01/29 07:08:36;;;;;;;4.28;2.65;;;;;;;-0.95;100.00;98327.69;5158050;27;20194;-69
2023/01/29 07:11:04;;;;;;;5.13;2.13;;;;;;;-1.15;100.00;98330.13;5158053;27;20057;-66
2023/01/29 07:13:31;;;;;;;3.90;2.58;;;;;;;-1.54;100.00;98331.59;5157884;27;20427;-69
2023/01/29 07:15:58;;;;;;;5.25;1.95;;;;;;;-1.08;100.00;98333.97;5158262;27;20047;-67
2023/01/29 07:18:24;;;;;;;5.07;2.47;;;;;;;-1.38;100.00;98326.66;5158259;27;20428;-69
2023/01/29 07:20:51;;;;;;;5.05;2.35;;;;;;;-1.36;100.00;98329.84;5158169;27;20106;-68
2023/01/29 07:23:18;;;;;;;5.43;2.10;;;;;;;-0.85;100.00;98318.56;5157699;27;20365;-66
2023/01/29 07:25:44;;;;;;;3.78;2.00;;;;;;;-0.86;100.00;98322.38;5158223;27;20051;-65
2023/01/29 07:28:11;;;;;;;4.53;2.22;;;;;;;-1.17;100.00;98311.59;5157636;27;20053;-66
2023/01/29 07:30:37;;;;;;;5.95;2.22;;;;;;;-0.87;100.00;98314.59;5160151;27;20054;-70
2023/01/29 07:33:04;;;;;;;1.98;1.80;;;;;;;-0.73;100.00;98309.91;5161581;27;20273;-65
2023/01/29 07:35:30;;;;;;;3.95;2.72;;;;;;;-0.98;100.00;98311.38;5161791;27;20062;-68
2023/01/29 07:37:57;;;;;;;6.50;2.60;;;;;;;-1.27;100.00;98312.63;5161348;27;20341;-67
2023/01/29 07:40:24;;;;;;;3.42;2.53;;;;;;;-1.19;100.00;98303.06;5161109;27;20051;-66
2023/01/29 07:42:50;;;;;;;3.97;2.67;;;;;;;-1.08;100.00;98304.38;5161520;27;20112;-68
2023/01/29 07:45:16;;;;;;;4.97;2.83;;;;;;;-0.95;100.00;98306.16;5161128;27;20059;-65
2023/01/29 07:47:42;;;;;;;7.30;2.50;;;;;;;-1.01;100.00;98302.03;5161492;27;20047;-65
2023/01/29 07:50:10;;;;;;;3.88;2.47;;;;;;;-1.13;100.00;98293.75;5160974;27;20055;-66
2023/01/29 07:52:36;;;;;;;4.35;2.63;;;;;;;-1.36;100.00;98300.28;5161533;27;20134;-68
2023/01/29 07:55:03;;;;;;;4.45;2.70;;;;;;;-1.11;100.00;98302.28;5160875;27;20438;-65
2023/01/29 07:57:29;;;;;;;5.30;2.75;;;;;;;-1.25;100.00;98301.59;5161159;27;20133;-66
2023/01/29 07:59:56;;;;;;;6.65;3.97;;;;;;;-0.99;100.00;98304.41;5161245;27;20050;-68
2023/01/29 08:02:22;;;;;;;5.43;2.90;;;;;;;-1.06;100.00;98298.69;5161084;27;20051;-66
2023/01/29 08:04:48;;;;;;;3.70;2.63;;;;;;;-1.00;100.00;98300.94;5161208;27;20057;-69
2023/01/29 08:07:14;;;;;;;4.00;3.47;;;;;;;-0.90;100.00;98299.88;5160829;27;20082;-71
2023/01/29 08:09:40;;;;;;;2.95;2.50;;;;;;;-1.17;100.00;98300.03;5160965;27;20057;-64
2023/01/29 08:12:07;;;;;;;6.07;3.05;;;;;;;-1.26;100.00;98314.25;5160860;27;20051;-68
2023/01/29 08:14:33;;;;;;;4.97;2.80;;;;;;;-1.13;100.00;98320.66;5161033;27;20137;-65
2023/01/29 08:17:00;;;;;;;3.90;2.75;;;;;;;-1.39;100.00;98311.63;5160738;27;20061;-68
2023/01/29 08:19:26;;;;;;;4.50;3.17;;;;;;;-1.45;100.00;98316.34;5160385;27;20403;-65
2023/01/29 08:21:52;;;;;;;4.57;2.30;;;;;;;-1.05;100.00;98314.50;5160611;27;20058;-66
2023/01/29 08:24:18;;;;;;;8.88;3.67;;;;;;;-0.95;100.00;98314.25;5160994;27;20058;-66
2023/01/29 08:26:44;;;;;;;4.50;3.00;;;;;;;-1.47;100.00;98300.50;5160569;27;20050;-67
2023/01/29 08:29:12;;;;;;;3.08;2.58;;;;;;;-1.24;100.00;98300.47;5160409;27;20331;-65
2023/01/29 08:31:38;;;;;;;4.93;2.95;;;;;;;-0.98;100.00;98306.78;5160674;27;20331;-67
2023/01/29 08:34:04;;;;;;;5.60;2.85;;;;;;;-1.13;100.00;98284.88;5160334;27;20051;-65
2023/01/29 08:36:31;;;;;;;3.38;2.15;;;;;;;-0.97;100.00;98302.19;5160680;27;20046;-67
2023/01/29 08:38:57;;;;;;;6.15;2.70;;;;;;;-0.77;100.00;98285.53;5160329;27;20336;-67
2023/01/29 08:41:23;;;;;;;3.13;2.60;;;;;;;-0.95;100.00;98283.84;5160349;27;20043;-65
2023/01/29 08:43:49;;;;;;;4.93;3.38;;;;;;;-0.96;100.00;98282.28;5160122;27;20051;-70
2023/01/29 08:46:16;;;;;;;7.13;3.00;;;;;;;-0.97;100.00;98289.56;5160639;27;20056;-65
2023/01/29 08:48:43;;;;;;;4.45;3.45;;;;;;;-0.91;100.00;98286.72;5160106;27;20053;-68
2023/01/29 08:51:09;;;;;;;6.53;2.75;;;;;;;-0.64;100.00;98274.94;5160569;27;20324;-67
2023/01/29 08:53:35;;;;;;;3.65;2.97;;;;;;;-0.62;100.00;98265.44;5160015;27;20047;-66
2023/01/29 08:56:01;;;;;;;6.47;3.28;;;;;;;-0.69;100.00;98264.31;5160454;27;20065;-69
2023/01/29 08:58:27;;;;;;;6.85;2.83;;;;;;;-0.81;100.00;98262.22;5160250;27;20047;-65
2023/01/29 09:00:53;;;;;;;5.53;3.28;;;;;;;-0.83;100.00;98257.16;5160110;27;20323;-69
2023/01/29 09:03:20;;;;;;;4.85;2.88;;;;;;;-0.59;100.00;98247.88;5160203;27;20066;-64
2023/01/29 09:05:47;;;;;;;4.65;3.13;;;;;;;-0.99;100.00;98240.63;5159985;27;20062;-67
2023/01/29 09:08:14;;;;;;;5.38;3.33;;;;;;;-1.12;100.00;98255.00;5160165;27;20047;-67
2023/01/29 09:10:40;;;;;;;4.53;2.95;;;;;;;-0.86;100.00;98263.16;5159865;27;20111;-70
2023/01/29 09:13:06;;;;;;;4.80;2.85;;;;;;;-0.87;100.00;98264.25;5160064;27;20047;-65
2023/01/29 09:15:32;;;;;;;4.32;3.38;;;;;;;-1.11;100.00;98255.78;5159798;27;20058;-69
2023/01/29 09:18:03;;;;;;;5.88;3.47;;;;;;;-1.33;100.00;98262.81;5159726;27;20308;-65
2023/01/29 09:20:30;;;;;;;6.32;3.95;;;;;;;-1.25;100.00;98272.00;5159528;27;20395;-68
2023/01/29 09:22:57;;;;;;;5.88;3.40;;;;;;;-1.11;100.00;98291.53;5160029;27;20043;-65
2023/01/29 09:25:24;;;;;;;7.35;3.67;;;;;;;-1.20;100.00;98296.06;5159501;27;20051;-66
2023/01/29 09:27:50;;;;;;;3.72;2.90;;;;;;;-1.16;100.00;98313.19;5159479;27;20171;-66
2023/01/29 09:30:17;;;;;;;6.57;3.72;;;;;;;-1.11;100.00;98318.44;5159550;27;20205;-67
2023/01/29 09:32:43;;;;;;;5.40;3.78;;;;;;;-1.28;100.00;98316.44;5159461;27;20058;-65
2023/01/29 09:35:10;;;;;;;7.60;3.45;;;;;;;-1.21;100.00;98324.06;5159524;27;20052;-69
2023/01/29 09:37:37;;;;;;;5.95;3.10;;;;;;;-1.10;100.00;98316.53;5159343;27;20439;-63
2023/01/29 09:40:03;;;;;;;4.13;2.83;;;;;;;-0.84;100.00;98314.75;5159654;27;20051;-67
2023/01/29 09:42:38;;;;;;;6.78;3.38;;;;;;;-0.71;100.00;98291.53;5159311;27;20055;-70
2023/01/29 09:45:05;;;;;;;;;;;;;;;-0.89;100.00;98297.97;5160071;27;20054;-65
2023/01/29 09:47:34;;;;;;;4.10;3.10;;;;;;;-0.80;100.00;98318.44;5159210;27;20246;-65
2023/01/29 09:50:04;;;;;;;5.95;3.17;;;;;;;-0.58;100.00;98317.56;5159104;27;20392;-67
2023/01/29 09:52:35;;;;;;;6.38;3.90;;;;;;;-0.46;100.00;98303.50;5158696;27;20060;-67
2023/01/29 09:55:10;;;;;;;5.97;3.85;;;;;;;-0.76;100.00;98270.97;5159110;27;20046;-66
2023/01/29 09:57:45;;;;;;;5.55;3.90;;;;;;;-0.91;100.00;98286.72;5159433;27;20054;-66
2023/01/29 10:00:17;;;;;;;3.67;3.08;;;;;;;-0.71;100.00;98283.47;5159077;27;20065;-63
2023/01/29 10:02:58;;;;;;;8.38;3.70;;;;;;;-0.61;100.00;98303.91;5159224;27;20050;-65
2023/01/29 10:05:42;;;;;;;4.18;3.33;;;;;;;-0.86;100.00;98289.28;5158907;27;20416;-68
2023/01/29 10:08:38;;;;;;;5.53;3.65;;;;;;;-0.49;100.00;98287.97;5159154;27;20434;-65
2023/01/29 10:11:16;;;;;;;8.52;4.05;;;;;;;-0.75;100.00;98252.91;5157872;27;20127;-68
2023/01/29 10:13:51;;;;;;;5.22;3.08;;;;;;;-0.70;100.00;98298.50;5158844;27;20070;-65
2023/01/29 10:16:32;;;;;;;7.55;3.92;;;;;;;-0.85;100.00;98297.03;5159196;27;20047;-67
2023/01/29 10:19:17;;;;;;;6.30;3.15;;;;;;;-0.97;100.00;98315.66;5158717;27;20057;-65
2023/01/29 10:22:15;;;;;;;4.28;3.55;;;;;;;-0.77;100.00;98358.19;5158873;27;20050;-68
2023/01/29 10:24:47;;;;;;;7.00;3.38;;;;;;;-1.10;100.00;98344.25;5158756;27;20054;-68
2023/01/29 10:27:16;;;;;;;5.40;3.30;;;;;;;-0.69;100.00;98356.63;5158673;27;20468;-63
2023/01/29 10:29:46;;;;;;;6.30;3.63;;;;;;;-0.76;100.00;98308.63;5158827;27;20392;-66
2023/01/29 10:32:16;;;;;;;5.38;3.63;;;;;;;-0.84;100.00;98324.72;5158388;27;20137;-67
2023/01/29 10:34:49;;;;;;;5.78;3.70;;;;;;;-0.49;100.00;98306.81;5158936;27;20051;-63
2023/01/29 10:37:18;;;;;;;6.25;3.50;;;;;;;-0.72;100.00;98303.41;5158378;27;20422;-65
2023/01/29 10:39:44;;;;;;;7.25;4.07;;;;;;;-0.55;100.00;98306.16;5158668;27;20057;-62
2023/01/29 10:42:25;;;;;;;4.28;3.63;;;;;;;-0.32;100.00;98306.06;5158641;27;20050;-68
2023/01/29 10:45:05;;;;;;;7.97;4.55;;;;;;;-0.49;100.00;98301.44;5158276;27;20054;-68
2023/01/29 10:48:05;;;;;;;6.55;4.15;;;;;;;-0.48;100.00;98284.94;5158519;27;20376;-67
2023/01/29 10:50:42;;;;;;;8.20;4.03;;;;;;;-0.35;100.00;98296.72;5158170;27;20051;-68
2023/01/29 10:53:29;;;;;;;8.48;3.97;;;;;;;-0.43;100.00;98262.50;5158407;27;20061;-67
2023/01/29 10:56:05;;;;;;;9.15;4.90;;;;;;;-0.63;100.00;98279.19;5158327;27;20047;-68
2023/01/29 10:58:39;;;;;;;7.28;4.57;;;;;;;-0.53;100.00;98305.88;5158104;27;20061;-68
2023/01/29 11:01:05;;;;;;;11.77;4.63;;;;;;;-0.53;100.00;98338.19;5158340;27;20427;-68
2023/01/29 11:03:33;;;;;;;7.85;4.15;;;;;;;-0.29;100.00;98332.38;5157969;27;20117;-66
2023/01/29 11:06:10;;;;;;;8.93;4.00;;;;;;;-0.41;100.00;98318.72;5157922;27;20050;-68
2023/01/29 11:08:41;;;;;;;12.60;4.22;;;;;;;-0.08;100.00;98294.84;5157918;27;20047;-69
2023/01/29 11:11:12;;;;;;;7.78;4.55;;;;;;;-0.15;100.00;98254.91;5158164;27;20297;-64
2023/01/29 11:13:44;;;;;;;6.07;4.18;;;;;;;0.09;100.00;98248.25;5157994;27;20054;-68
2023/01/29 11:16:10;;;;;;;5.22;4.18;;;;;;;-0.26;100.00;98250.94;5158026;27;20047;-68
2023/01/29 11:18:51;;;;;;;7.18;4.35;;;;;;;-0.13;100.00;98265.38;5158345;27;20327;-67
2023/01/29 11:21:18;;;;;;;6.72;4.40;;;;;;;-0.20;100.00;98240.78;5157703;27;20054;-66
2023/01/29 11:23:45;;;;;;;7.60;3.97;;;;;;;-0.21;100.00;98234.59;5158166;27;20118;-69
2023/01/29 11:26:13;;;;;;;7.20;4.30;;;;;;;0.12;100.00;98248.41;5157813;27;20058;-65
2023/01/29 11:28:41;;;;;;;10.85;5.25;;;;;;;-0.19;100.00;98243.19;5158184;27;20056;-69
2023/01/29 11:31:20;;;;;;;7.50;4.60;;;;;;;-0.11;100.00;98261.22;5157647;27;20062;-66
2023/01/29 11:33:46;;;;;;;10.30;4.82;;;;;;;-0.34;100.00;98281.34;5157848;27;20050;-67
2023/01/29 11:36:35;;;;;;;7.45;4.47;;;;;;;-0.29;100.00;98319.69;5157676;27;20051;-65
2023/01/29 11:39:14;;;;;;;9.80;5.05;;;;;;;-0.08;100.00;98354.13;5157564;27;20046;-68
2023/01/29 11:41:47;;;;;;;8.65;4.72;;;;;;;0.16;100.00;98350.97;5157856;27;20424;-64
2023/01/29 11:44:25;;;;;;;8.05;4.45;;;;;;;0.09;100.00;98343.34;5157599;27;20057;-66
2023/01/29 11:46:52;;;;;;;10.90;4.47;;;;;;;0.32;100.00;98370.97;5157918;27;20110;-67
2023/01/29 11:49:29;;;;;;;9.32;5.38;;;;;;;0.23;100.00;98302.78;5157699;27;20331;-64
2023/01/29 11:51:57;;;;;;;5.75;3.95;;;;;;;0.35;100.00;98305.63;5157766;27;20062;-67
2023/01/29 11:54:28;;;;;;;8.52;4.75;;;;;;;0.09;100.00;98281.38;5157765;27;20083;-66
2023/01/29 11:56:55;;;;;;;11.40;5.43;;;;;;;-0.09;100.00;98322.91;5157481;27;20054;-66
2023/01/29 11:59:38;;;;;;;10.60;4.55;;;;;;;0.25;100.00;98340.22;5157471;27;20046;-67
2023/01/29 12:02:12;;;;;;;8.25;4.97;;;;;;;0.21;100.00;98351.63;5157298;27;20054;-67
2023/01/29 12:04:39;;;;;;;8.27;4.70;;;;;;;0.14;100.00;98342.44;5157710;27;20473;-67